Time;durP1;ratioP1;P1;durP2;ratioP2;P2;SDS_P1;SDS_P2;PMS_P1;PMS_P2;Temp;Humidity;BMP_temperature;BMP_pressure;BME280_temperature;BME280_humidity;BME280_pressure;Samples;Min_cycle;Max_cycle;Signal;HPM_P1;HPM_P2
2023/10/14 00:01:27;;;;;;;17.52;14.73;;;;;;;;;;4993472;28;20301;-80
2023/10/14 00:03:56;;;;;;;18.50;14.73;;;;;;;;;;4990108;28;20311;-79
2023/10/14 00:06:22;;;;;;;16.58;10.68;;;;;;;;;;4971779;28;20251;-80
2023/10/14 00:09:11;;;;;;;8.18;7.38;;;;;;;;;;4972411;28;20847;-79
2023/10/14 00:11:40;;;;;;;9.77;7.22;;;;;;;;;;4987538;28;20317;-78
2023/10/14 00:14:15;;;;;;;9.88;8.43;;;;;;;;;;4970276;28;20218;-79
2023/10/14 00:16:42;;;;;;;7.18;6.47;;;;;;;;;;4965030;28;21244;-78
2023/10/14 00:19:09;;;;;;;9.52;5.18;;;;;;;;;;4993620;28;20964;-79
2023/10/14 00:21:39;;;;;;;6.03;4.25;;;;;;;;;;4967992;28;20218;-78
2023/10/14 00:24:06;;;;;;;8.55;4.65;;;;;;;;;;4953111;28;20232;-79
2023/10/14 00:26:35;;;;;;;6.10;4.72;;;;;;;;;;4964191;28;20221;-78
2023/10/14 00:31:42;;;;;;;7.53;5.00;;;;;;;;;;4953482;28;20851;-78
2023/10/14 00:34:08;;;;;;;6.85;4.30;;;;;;;;;;4957623;28;20225;-79
2023/10/14 00:36:34;;;;;;;4.95;4.15;;;;;;;;;;5006086;28;20231;-80
2023/10/14 00:39:12;;;;;;;9.15;3.97;;;;;;;;;;4948663;28;20316;-79
2023/10/14 00:41:44;;;;;;;6.80;3.97;;;;;;;;;;4969872;28;20296;-78
2023/10/14 00:44:12;;;;;;;10.02;4.53;;;;;;;;;;4982625;28;20230;-80
2023/10/14 00:46:42;;;;;;;11.07;4.10;;;;;;;;;;4953041;28;20370;-79
2023/10/14 00:49:11;;;;;;;8.48;4.15;;;;;;;;;;4987353;28;20278;-78
2023/10/14 00:51:43;;;;;;;6.22;4.10;;;;;;;;;;4969778;28;20234;-77
2023/10/14 00:54:27;;;;;;;7.60;4.22;;;;;;;;;;4995992;28;20234;-78
2023/10/14 00:57:04;;;;;;;10.48;3.90;;;;;;;;;;4979201;28;20317;-78
2023/10/14 00:59:30;;;;;;;6.68;4.00;;;;;;;;;;4964794;28;20218;-78
2023/10/14 01:02:01;;;;;;;5.90;4.10;;;;;;;;;;4990190;28;20213;-78
2023/10/14 01:04:32;;;;;;;7.10;3.53;;;;;;;;;;4976708;28;20230;-77
2023/10/14 01:07:13;;;;;;;4.97;2.17;;;;;;;;;;4985864;28;20218;-79
2023/10/14 01:12:16;;;;;;;2.15;1.48;;;;;;;;;;4976536;28;20221;-78
2023/10/14 01:14:58;;;;;;;2.45;1.20;;;;;;;;;;5002511;28;20244;-78
2023/10/14 01:17:32;;;;;;;2.13;1.00;;;;;;;;;;4986388;28;20228;-78
2023/10/14 01:22:41;;;;;;;2.17;1.00;;;;;;;;;;5000315;28;20217;-80
2023/10/14 01:25:12;;;;;;;2.17;0.93;;;;;;;;;;4960783;28;20225;-78
2023/10/14 01:27:38;;;;;;;3.00;0.90;;;;;;;;;;4962051;28;20220;-78
2023/10/14 01:30:11;;;;;;;1.60;1.00;;;;;;;;;;4970404;28;20226;-78
2023/10/14 01:37:56;;;;;;;2.33;1.17;;;;;;;;;;4995265;28;20217;-77
2023/10/14 01:42:49;;;;;;;1.90;1.20;;;;;;;;;;4981908;28;20219;-77
2023/10/14 01:45:20;;;;;;;2.90;1.20;;;;;;;;;;4959390;28;20245;-76
2023/10/14 01:48:01;;;;;;;3.23;1.33;;;;;;;;;;4979450;28;20291;-76
2023/10/14 01:50:44;;;;;;;2.37;1.27;;;;;;;;;;4976437;28;20229;-77
2023/10/14 01:53:17;;;;;;;3.80;1.47;;;;;;;;;;4980169;28;20247;-77
2023/10/14 01:55:43;;;;;;;3.40;1.33;;;;;;;;;;4956718;28;20232;-77
2023/10/14 01:58:21;;;;;;;1.83;1.20;;;;;;;;;;4986846;28;20241;-79
2023/10/14 02:00:53;;;;;;;3.27;1.57;;;;;;;;;;4965619;28;20607;-79
2023/10/14 02:03:20;;;;;;;2.00;1.30;;;;;;;;;;4948952;28;20221;-79
2023/10/14 02:05:45;;;;;;;3.00;1.40;;;;;;;;;;4979506;28;20225;-78
2023/10/14 02:08:14;;;;;;;6.37;1.43;;;;;;;;;;4992685;28;20232;-78
2023/10/14 02:10:46;;;;;;;3.67;1.23;;;;;;;;;;4952084;28;20225;-78
2023/10/14 02:13:17;;;;;;;4.07;1.50;;;;;;;;;;4990622;28;20720;-78
2023/10/14 02:15:48;;;;;;;3.13;1.30;;;;;;;;;;4953633;28;20230;-77
2023/10/14 02:18:20;;;;;;;3.70;1.40;;;;;;;;;;4964499;28;20218;-78
2023/10/14 02:21:05;;;;;;;4.90;1.37;;;;;;;;;;4981971;28;20221;-78
2023/10/14 02:23:46;;;;;;;3.00;1.50;;;;;;;;;;4942021;28;20214;-78
2023/10/14 02:26:12;;;;;;;3.27;1.20;;;;;;;;;;4946783;28;20213;-78
2023/10/14 02:28:45;;;;;;;3.57;1.27;;;;;;;;;;4983814;28;20276;-79
2023/10/14 02:31:17;;;;;;;5.47;2.00;;;;;;;;;;4982682;28;20845;-78
2023/10/14 02:33:48;;;;;;;3.20;1.40;;;;;;;;;;4972581;28;20218;-77
2023/10/14 02:36:17;;;;;;;3.93;1.80;;;;;;;;;;4948367;28;20724;-77
2023/10/14 02:38:53;;;;;;;4.33;1.40;;;;;;;;;;4964355;28;20221;-79
2023/10/14 02:41:26;;;;;;;4.80;1.60;;;;;;;;;;4965318;28;20225;-77
2023/10/14 02:46:46;;;;;;;4.37;1.50;;;;;;;;;;4968678;28;20709;-77
2023/10/14 02:49:14;;;;;;;2.83;1.30;;;;;;;;;;4960324;28;20271;-79
2023/10/14 02:51:45;;;;;;;1.83;1.10;;;;;;;;;;4954863;28;20222;-77
2023/10/14 02:54:18;;;;;;;3.33;1.50;;;;;;;;;;4955071;28;20221;-78
2023/10/14 02:57:29;;;;;;;2.67;1.27;;;;;;;;;;4997053;28;20316;-78
2023/10/14 02:59:43;;;;;;;3.40;1.33;;;;;;;;;;4987369;28;20316;-77
2023/10/14 03:02:17;;;;;;;2.27;1.23;;;;;;;;;;4966003;28;20221;-78
2023/10/14 03:09:54;;;;;;;1.73;1.10;;;;;;;;;;4967704;28;20268;-77
2023/10/14 03:12:19;;;;;;;3.10;1.07;;;;;;;;;;4955178;28;20221;-77
2023/10/14 03:14:51;;;;;;;2.80;1.47;;;;;;;;;;4970281;28;20245;-78
2023/10/14 03:17:25;;;;;;;3.10;1.27;;;;;;;;;;4941702;28;20584;-77
2023/10/14 03:19:56;;;;;;;2.30;1.30;;;;;;;;;;4974089;28;20232;-77
2023/10/14 03:22:26;;;;;;;1.50;1.00;;;;;;;;;;4975443;28;20229;-80
2023/10/14 03:24:52;;;;;;;2.93;1.30;;;;;;;;;;4951110;28;20240;-78
2023/10/14 03:27:18;;;;;;;3.33;1.40;;;;;;;;;;4952697;28;20609;-79
2023/10/14 03:29:54;;;;;;;2.63;1.37;;;;;;;;;;4971329;28;20305;-81
2023/10/14 03:32:32;;;;;;;2.97;1.30;;;;;;;;;;4990373;28;20228;-81
2023/10/14 03:34:59;;;;;;;3.50;1.60;;;;;;;;;;4984228;28;20232;-77
2023/10/14 03:37:27;;;;;;;2.63;1.37;;;;;;;;;;4960934;28;20281;-79
2023/10/14 03:42:52;;;;;;;1.53;1.07;;;;;;;;;;5003055;28;20736;-78
2023/10/14 03:45:28;;;;;;;2.83;1.40;;;;;;;;;;4962170;28;20228;-78
2023/10/14 03:47:59;;;;;;;4.27;1.57;;;;;;;;;;4956551;28;20242;-79
2023/10/14 03:50:28;;;;;;;2.37;1.53;;;;;;;;;;4969396;28;20487;-78
2023/10/14 03:52:54;;;;;;;2.53;1.63;;;;;;;;;;4985698;28;20233;-79
2023/10/14 03:55:27;;;;;;;2.60;1.77;;;;;;;;;;4982626;28;20305;-79
2023/10/14 03:58:03;;;;;;;4.00;1.60;;;;;;;;;;4975557;28;20226;-80
2023/10/14 04:04:18;;;;;;;2.23;1.50;;;;;;;;;;4979156;28;20228;-79
2023/10/14 04:06:55;;;;;;;5.27;1.80;;;;;;;;;;4956743;28;20599;-79
2023/10/14 04:09:24;;;;;;;4.73;1.63;;;;;;;;;;4960844;28;20236;-79
2023/10/14 04:11:54;;;;;;;2.27;1.40;;;;;;;;;;4974955;28;20236;-79
2023/10/14 04:14:22;;;;;;;4.23;1.53;;;;;;;;;;4959068;28;20287;-80
2023/10/14 04:17:09;;;;;;;6.80;1.90;;;;;;;;;;4995758;28;20228;-79
2023/10/14 04:19:47;;;;;;;;;;;;;;;;;;;;;
2023/10/14 04:25:08;;;;;;;3.23;1.80;;;;;;;;;;4988994;28;20234;-78
2023/10/14 04:27:45;;;;;;;5.40;1.93;;;;;;;;;;4985322;28;20229;-80
2023/10/14 04:30:21;;;;;;;4.67;1.93;;;;;;;;;;4997431;28;20233;-80
2023/10/14 04:35:24;;;;;;;5.03;2.33;;;;;;;;;;4998078;28;20261;-79
2023/10/14 04:37:53;;;;;;;4.00;2.10;;;;;;;;;;4992966;28;20518;-79
2023/10/14 04:43:11;;;;;;;4.77;2.03;;;;;;;;;;4991384;28;20321;-79
2023/10/14 04:45:37;;;;;;;6.00;2.10;;;;;;;;;;4981421;28;20226;-79
2023/10/14 04:48:06;;;;;;;7.40;2.00;;;;;;;;;;4943931;28;20287;-79
2023/10/14 04:50:33;;;;;;;6.97;2.37;;;;;;;;;;4971091;28;21031;-77
2023/10/14 04:52:59;;;;;;;6.60;2.17;;;;;;;;;;4943529;28;20756;-80
2023/10/14 04:58:06;;;;;;;7.03;2.20;;;;;;;;;;4957103;28;20357;-80
2023/10/14 05:00:33;;;;;;;4.83;2.07;;;;;;;;;;4989749;28;20222;-80
2023/10/14 05:02:59;;;;;;;6.43;1.97;;;;;;;;;;4997088;28;20232;-80
2023/10/14 05:05:32;;;;;;;6.73;1.80;;;;;;;;;;4966578;28;20235;-80
2023/10/14 05:08:04;;;;;;;6.07;2.20;;;;;;;;;;4978454;28;20239;-80
2023/10/14 05:10:29;;;;;;;6.73;1.83;;;;;;;;;;4956606;28;20228;-81
2023/10/14 05:12:55;;;;;;;7.07;2.00;;;;;;;;;;4978583;28;20226;-80
2023/10/14 05:15:25;;;;;;;6.27;2.30;;;;;;;;;;4942641;28;20222;-81
2023/10/14 05:17:52;;;;;;;9.20;2.27;;;;;;;;;;4988491;28;20229;-80
2023/10/14 05:20:29;;;;;;;9.90;2.50;;;;;;;;;;4983957;28;20227;-78
2023/10/14 05:22:56;;;;;;;6.43;2.00;;;;;;;;;;4974225;28;20313;-80
2023/10/14 05:25:27;;;;;;;8.53;2.40;;;;;;;;;;4993058;28;20225;-81
2023/10/14 05:27:58;;;;;;;9.17;2.23;;;;;;;;;;4979987;28;20325;-80
2023/10/14 05:30:33;;;;;;;10.63;2.70;;;;;;;;;;4982906;28;20244;-82
2023/10/14 05:33:06;;;;;;;7.20;2.70;;;;;;;;;;4979867;28;20233;-79
2023/10/14 05:35:43;;;;;;;7.37;2.80;;;;;;;;;;4956558;28;20225;-81
2023/10/14 05:38:14;;;;;;;11.07;3.13;;;;;;;;;;5012746;28;20220;-80
2023/10/14 05:40:40;;;;;;;9.70;2.63;;;;;;;;;;4981566;28;20276;-80
2023/10/14 05:43:06;;;;;;;12.77;2.83;;;;;;;;;;4982038;28;20367;-79
2023/10/14 05:45:38;;;;;;;7.93;2.57;;;;;;;;;;4944832;28;20239;-81
2023/10/14 05:48:09;;;;;;;9.83;2.60;;;;;;;;;;4929516;28;20229;-80
2023/10/14 05:50:35;;;;;;;8.40;2.33;;;;;;;;;;4959187;28;20229;-80
2023/10/14 05:53:01;;;;;;;6.83;2.37;;;;;;;;;;4959862;28;20237;-81
2023/10/14 05:55:29;;;;;;;6.60;2.17;;;;;;;;;;4962149;28;20234;-80
2023/10/14 05:58:02;;;;;;;8.27;2.30;;;;;;;;;;4956698;28;20226;-80
2023/10/14 06:00:28;;;;;;;11.40;2.87;;;;;;;;;;5002817;28;20256;-82
2023/10/14 06:02:55;;;;;;;6.57;2.20;;;;;;;;;;4954038;28;20226;-79
2023/10/14 06:05:24;;;;;;;5.23;2.20;;;;;;;;;;4991489;28;20229;-81
2023/10/14 06:07:52;;;;;;;8.93;2.60;;;;;;;;;;4962710;28;20235;-82
2023/10/14 06:10:23;;;;;;;6.63;1.77;;;;;;;;;;4990581;28;20276;-79
2023/10/14 06:12:50;;;;;;;9.10;2.67;;;;;;;;;;4970745;28;20743;-79
2023/10/14 06:15:17;;;;;;;8.97;2.60;;;;;;;;;;4975313;28;20226;-81
2023/10/14 06:17:45;;;;;;;8.20;2.70;;;;;;;;;;4956659;28;20710;-81
2023/10/14 06:20:14;;;;;;;8.50;2.43;;;;;;;;;;4987764;28;20223;-82
2023/10/14 06:22:41;;;;;;;8.07;2.20;;;;;;;;;;4975714;28;20238;-82
2023/10/14 06:25:07;;;;;;;6.60;2.50;;;;;;;;;;4959765;28;20723;-80
2023/10/14 06:27:32;;;;;;;7.10;2.03;;;;;;;;;;4963147;28;20225;-80
2023/10/14 06:29:58;;;;;;;5.47;2.07;;;;;;;;;;4976408;28;20253;-80
2023/10/14 06:32:29;;;;;;;7.80;2.03;;;;;;;;;;4967246;28;20217;-79
2023/10/14 06:35:02;;;;;;;5.87;1.77;;;;;;;;;;5005258;28;20281;-80
2023/10/14 06:37:40;;;;;;;5.10;2.00;;;;;;;;;;4987310;28;20296;-80
2023/10/14 06:40:11;;;;;;;8.53;2.43;;;;;;;;;;4992580;28;20248;-81
2023/10/14 06:42:40;;;;;;;10.30;2.23;;;;;;;;;;4939912;28;20555;-80
2023/10/14 06:45:06;;;;;;;7.67;2.50;;;;;;;;;;4952734;28;20230;-80
2023/10/14 06:47:34;;;;;;;7.50;2.60;;;;;;;;;;4970978;28;20233;-79
2023/10/14 06:50:01;;;;;;;8.53;2.73;;;;;;;;;;4966298;28;20255;-79
2023/10/14 06:52:27;;;;;;;9.17;2.17;;;;;;;;;;4985147;28;20228;-78
2023/10/14 06:54:53;;;;;;;9.83;2.37;;;;;;;;;;4977683;28;20596;-80
2023/10/14 06:57:18;;;;;;;8.00;2.27;;;;;;;;;;5002318;28;20260;-82
2023/10/14 06:59:45;;;;;;;8.70;1.87;;;;;;;;;;4995463;28;20219;-80
2023/10/14 07:02:11;;;;;;;4.73;2.07;;;;;;;;;;4979050;28;20217;-81
2023/10/14 07:04:40;;;;;;;7.40;2.47;;;;;;;;;;4975374;28;20221;-81
2023/10/14 07:07:09;;;;;;;13.47;2.40;;;;;;;;;;4972640;28;20229;-79
2023/10/14 07:09:36;;;;;;;15.60;2.50;;;;;;;;;;4961274;28;20233;-80
2023/10/14 07:12:13;;;;;;;7.67;2.03;;;;;;;;;;4977964;28;20232;-80
2023/10/14 07:14:41;;;;;;;9.47;2.50;;;;;;;;;;4962560;28;20221;-81
2023/10/14 07:17:09;;;;;;;9.90;2.40;;;;;;;;;;4980787;28;20221;-80
2023/10/14 07:19:35;;;;;;;13.00;2.50;;;;;;;;;;4953861;28;20233;-80
2023/10/14 07:22:07;;;;;;;7.70;2.13;;;;;;;;;;4985067;28;20226;-79
2023/10/14 07:24:35;;;;;;;13.33;2.30;;;;;;;;;;4962150;28;20229;-80
2023/10/14 07:27:02;;;;;;;6.47;2.13;;;;;;;;;;4953211;28;20260;-78
2023/10/14 07:29:28;;;;;;;4.33;1.80;;;;;;;;;;4974998;28;20366;-79
2023/10/14 07:31:55;;;;;;;7.07;1.97;;;;;;;;;;4994215;28;20246;-79
2023/10/14 07:34:22;;;;;;;5.70;2.20;;;;;;;;;;5003893;28;20654;-80
2023/10/14 07:36:50;;;;;;;5.60;1.97;;;;;;;;;;4975803;28;20225;-80
2023/10/14 07:39:28;;;;;;;5.67;2.33;;;;;;;;;;4993520;28;20218;-78
2023/10/14 07:41:57;;;;;;;8.90;2.23;;;;;;;;;;4981502;28;20232;-78
2023/10/14 07:44:23;;;;;;;8.90;2.43;;;;;;;;;;4991863;28;20228;-79
2023/10/14 07:46:49;;;;;;;9.20;2.47;;;;;;;;;;4937691;28;20281;-80
2023/10/14 07:49:17;;;;;;;9.10;2.30;;;;;;;;;;4963560;28;20233;-78
2023/10/14 07:51:46;;;;;;;14.60;2.50;;;;;;;;;;4981470;28;20268;-80
2023/10/14 07:54:13;;;;;;;5.97;2.10;;;;;;;;;;4972504;28;20225;-81
2023/10/14 07:56:42;;;;;;;6.50;2.40;;;;;;;;;;4953878;28;20222;-80
2023/10/14 07:59:08;;;;;;;12.90;2.23;;;;;;;;;;4975455;28;20245;-79
2023/10/14 08:01:38;;;;;;;8.00;2.37;;;;;;;;;;4945762;28;20221;-81
2023/10/14 08:04:07;;;;;;;7.33;2.30;;;;;;;;;;4960755;28;20292;-79
2023/10/14 08:06:34;;;;;;;5.33;2.40;;;;;;;;;;4981093;28;20240;-78
2023/10/14 08:09:00;;;;;;;8.17;2.37;;;;;;;;;;4978250;28;20720;-79
2023/10/14 08:11:25;;;;;;;5.73;2.40;;;;;;;;;;4992337;28;20229;-77
2023/10/14 08:13:54;;;;;;;6.10;1.70;;;;;;;;;;4984826;28;20944;-78
2023/10/14 08:16:20;;;;;;;7.77;2.23;;;;;;;;;;4979593;28;20218;-78
2023/10/14 08:18:46;;;;;;;8.43;2.30;;;;;;;;;;4998552;28;20230;-78
2023/10/14 08:21:12;;;;;;;5.20;2.17;;;;;;;;;;4985726;28;20283;-79
2023/10/14 08:23:39;;;;;;;8.03;1.97;;;;;;;;;;4982065;28;20214;-79
2023/10/14 08:26:12;;;;;;;6.60;2.53;;;;;;;;;;4975171;28;20236;-80
2023/10/14 08:28:42;;;;;;;5.70;2.43;;;;;;;;;;4989606;28;20735;-80
2023/10/14 08:31:08;;;;;;;9.57;2.33;;;;;;;;;;4982282;28;20217;-78
2023/10/14 08:33:36;;;;;;;5.63;2.10;;;;;;;;;;4961276;28;20296;-78
2023/10/14 08:36:03;;;;;;;8.63;2.33;;;;;;;;;;4978121;28;20233;-79
2023/10/14 08:38:28;;;;;;;7.00;2.43;;;;;;;;;;4976147;28;20222;-78
2023/10/14 08:40:54;;;;;;;9.57;2.30;;;;;;;;;;4945054;28;20597;-79
2023/10/14 08:43:21;;;;;;;10.83;2.40;;;;;;;;;;4963374;28;20281;-79
2023/10/14 08:45:47;;;;;;;9.33;3.00;;;;;;;;;;4965263;28;20218;-79
2023/10/14 08:48:16;;;;;;;10.03;2.73;;;;;;;;;;4985153;28;20569;-78
2023/10/14 08:50:42;;;;;;;8.07;2.23;;;;;;;;;;4974932;28;20303;-80
2023/10/14 08:53:13;;;;;;;10.47;2.47;;;;;;;;;;4979340;28;20278;-79
2023/10/14 08:55:39;;;;;;;9.20;2.50;;;;;;;;;;4980075;28;20213;-79
2023/10/14 08:58:05;;;;;;;8.70;2.80;;;;;;;;;;4953263;28;20222;-77
2023/10/14 09:00:36;;;;;;;7.03;2.30;;;;;;;;;;4991937;28;20249;-78
2023/10/14 09:03:07;;;;;;;9.83;2.63;;;;;;;;;;4986888;28;20221;-78
2023/10/14 09:05:39;;;;;;;6.27;2.30;;;;;;;;;;4983597;28;20249;-78
2023/10/14 09:08:10;;;;;;;11.30;2.37;;;;;;;;;;4979694;28;20729;-79
2023/10/14 09:10:38;;;;;;;6.33;2.20;;;;;;;;;;4969124;28;20235;-80
2023/10/14 09:13:05;;;;;;;7.13;2.57;;;;;;;;;;4983698;28;20282;-80
2023/10/14 09:15:32;;;;;;;7.47;2.50;;;;;;;;;;4975487;28;20240;-79
2023/10/14 09:18:01;;;;;;;6.67;2.40;;;;;;;;;;4983357;28;20218;-79
2023/10/14 09:20:29;;;;;;;6.83;2.33;;;;;;;;;;4955293;28;20244;-78
2023/10/14 09:23:12;;;;;;;5.47;2.10;;;;;;;;;;4984871;28;20869;-78
2023/10/14 09:25:49;;;;;;;6.50;2.50;;;;;;;;;;5001240;28;20303;-78
2023/10/14 09:28:17;;;;;;;6.27;2.30;;;;;;;;;;5001299;28;20720;-80
2023/10/14 09:30:45;;;;;;;6.17;2.27;;;;;;;;;;4990385;28;20222;-79
2023/10/14 09:33:16;;;;;;;7.17;2.33;;;;;;;;;;4974081;28;20280;-80
2023/10/14 09:35:48;;;;;;;8.60;2.50;;;;;;;;;;4994417;28;20232;-79
2023/10/14 09:38:22;;;;;;;9.10;2.77;;;;;;;;;;4991426;28;20241;-80
2023/10/14 09:40:55;;;;;;;10.23;2.90;;;;;;;;;;4947682;28;20293;-80
2023/10/14 09:43:23;;;;;;;5.87;2.10;;;;;;;;;;4984190;28;20218;-79
2023/10/14 09:45:57;;;;;;;6.60;2.20;;;;;;;;;;4969484;28;20220;-80
2023/10/14 09:48:29;;;;;;;10.82;2.35;;;;;;;;;;5004631;28;20353;-78
2023/10/14 09:51:02;;;;;;;6.18;2.63;;;;;;;;;;4972843;28;20221;-78
2023/10/14 09:53:29;;;;;;;7.55;2.63;;;;;;;;;;4993491;28;20231;-78
2023/10/14 09:56:06;;;;;;;6.10;2.20;;;;;;;;;;5003189;28;20249;-79
2023/10/14 09:58:41;;;;;;;6.55;2.47;;;;;;;;;;4991115;28;20225;-79
2023/10/14 10:01:07;;;;;;;8.73;2.47;;;;;;;;;;4986667;28;20224;-81
2023/10/14 10:03:38;;;;;;;4.90;2.10;;;;;;;;;;4979819;28;20226;-80
2023/10/14 10:06:25;;;;;;;4.73;1.97;;;;;;;;;;4975296;28;20931;-79
2023/10/14 10:08:55;;;;;;;12.57;2.60;;;;;;;;;;4995621;28;20292;-78
2023/10/14 10:11:25;;;;;;;7.22;2.22;;;;;;;;;;5000674;28;20574;-79
2023/10/14 10:13:59;;;;;;;16.25;2.40;;;;;;;;;;4939085;28;20620;-80
2023/10/14 10:16:29;;;;;;;8.40;2.60;;;;;;;;;;5003149;28;20982;-78
2023/10/14 10:18:59;;;;;;;6.30;2.00;;;;;;;;;;4970199;28;20309;-79
2023/10/14 10:21:31;;;;;;;5.37;2.00;;;;;;;;;;4960637;28;20256;-78
2023/10/14 10:24:09;;;;;;;9.23;2.60;;;;;;;;;;4972428;28;20229;-79
2023/10/14 10:27:00;;;;;;;5.67;2.40;;;;;;;;;;5008669;28;20240;-80
2023/10/14 10:29:25;;;;;;;5.73;2.17;;;;;;;;;;4985364;28;20234;-78
2023/10/14 10:32:09;;;;;;;8.70;2.30;;;;;;;;;;4973366;28;20222;-80
2023/10/14 10:34:54;;;;;;;4.97;1.92;;;;;;;;;;4988984;28;20244;-80
2023/10/14 10:37:20;;;;;;;3.72;2.20;;;;;;;;;;4993934;28;20241;-78
2023/10/14 10:39:50;;;;;;;8.50;2.67;;;;;;;;;;4979012;28;20234;-78
2023/10/14 10:42:16;;;;;;;8.25;2.33;;;;;;;;;;4955882;28;20225;-78
2023/10/14 10:44:43;;;;;;;6.13;2.17;;;;;;;;;;4962389;28;20377;-77
2023/10/14 10:47:10;;;;;;;6.70;2.20;;;;;;;;;;4983657;28;20686;-79
2023/10/14 10:49:58;;;;;;;8.75;2.47;;;;;;;;;;4972432;28;20245;-80
2023/10/14 10:52:28;;;;;;;8.80;2.38;;;;;;;;;;4999823;28;20216;-80
2023/10/14 10:54:56;;;;;;;11.90;2.60;;;;;;;;;;4982850;28;20218;-80
2023/10/14 10:57:26;;;;;;;6.97;2.38;;;;;;;;;;4977277;28;20762;-79
2023/10/14 10:59:54;;;;;;;6.47;2.33;;;;;;;;;;4992631;28;20801;-78
2023/10/14 11:02:21;;;;;;;5.55;2.30;;;;;;;;;;4987195;28;20218;-79
2023/10/14 11:04:49;;;;;;;4.47;2.13;;;;;;;;;;4985621;28;20780;-78
2023/10/14 11:07:14;;;;;;;4.93;1.80;;;;;;;;;;4970362;28;20255;-79
2023/10/14 11:09:42;;;;;;;6.80;2.10;;;;;;;;;;4981811;28;20230;-81
2023/10/14 11:12:09;;;;;;;4.03;2.03;;;;;;;;;;4985610;28;20401;-79
2023/10/14 11:14:37;;;;;;;5.03;2.17;;;;;;;;;;4972491;28;20237;-78
2023/10/14 11:17:04;;;;;;;6.83;2.03;;;;;;;;;;4972124;28;20580;-78
2023/10/14 11:19:33;;;;;;;5.50;1.97;;;;;;;;;;4938779;28;20658;-80
2023/10/14 11:22:02;;;;;;;4.63;1.90;;;;;;;;;;4967666;28;20237;-80
2023/10/14 11:24:30;;;;;;;2.60;1.53;;;;;;;;;;4976832;28;20233;-79
2023/10/14 11:26:57;;;;;;;6.30;1.97;;;;;;;;;;4960907;28;20943;-78
2023/10/14 11:29:23;;;;;;;7.23;2.37;;;;;;;;;;4957946;28;20713;-79
2023/10/14 11:31:53;;;;;;;6.57;2.03;;;;;;;;;;4977742;28;20229;-80
2023/10/14 11:34:23;;;;;;;5.87;1.80;;;;;;;;;;4980179;28;20835;-80
2023/10/14 11:36:48;;;;;;;8.63;2.30;;;;;;;;;;4965968;28;20240;-80
2023/10/14 11:39:18;;;;;;;5.70;2.33;;;;;;;;;;4983475;28;20309;-79
2023/10/14 11:41:52;;;;;;;6.87;2.20;;;;;;;;;;4955578;28;20222;-79
2023/10/14 11:44:20;;;;;;;5.90;2.13;;;;;;;;;;4956145;28;20234;-79
2023/10/14 11:46:50;;;;;;;5.23;2.20;;;;;;;;;;4980902;28;20275;-79
2023/10/14 11:49:21;;;;;;;6.63;1.93;;;;;;;;;;4982881;28;20229;-79
2023/10/14 11:51:47;;;;;;;5.30;2.00;;;;;;;;;;4957105;28;20321;-79
2023/10/14 11:54:17;;;;;;;6.25;2.30;;;;;;;;;;4972211;28;20225;-79
2023/10/14 11:56:47;;;;;;;5.80;1.90;;;;;;;;;;4974756;28;20252;-79
2023/10/14 11:59:13;;;;;;;5.07;1.90;;;;;;;;;;4957314;28;20311;-79
2023/10/14 12:01:45;;;;;;;9.90;1.75;;;;;;;;;;4982376;28;20726;-78
2023/10/14 12:04:11;;;;;;;7.10;2.20;;;;;;;;;;4956092;28;20364;-81
2023/10/14 12:06:37;;;;;;;6.57;2.13;;;;;;;;;;4954079;28;20367;-78
2023/10/14 12:09:11;;;;;;;4.57;1.38;;;;;;;;;;4959952;28;20796;-78
2023/10/14 12:11:41;;;;;;;7.22;1.90;;;;;;;;;;4985369;28;20302;-77
2023/10/14 12:14:15;;;;;;;3.83;1.60;;;;;;;;;;4986900;28;20225;-77
2023/10/14 12:16:40;;;;;;;4.70;1.98;;;;;;;;;;4950307;28;20222;-79
2023/10/14 12:19:11;;;;;;;7.43;2.03;;;;;;;;;;4962473;28;20210;-80
2023/10/14 12:21:38;;;;;;;6.22;1.98;;;;;;;;;;4985474;28;20222;-78
2023/10/14 12:24:04;;;;;;;4.90;1.65;;;;;;;;;;4975191;28;20218;-78
2023/10/14 12:26:35;;;;;;;1.87;1.20;;;;;;;;;;4946221;28;20313;-79
2023/10/14 12:29:07;;;;;;;3.00;1.40;;;;;;;;;;4971342;28;20232;-81
2023/10/14 12:31:44;;;;;;;3.07;1.40;;;;;;;;;;4955192;28;20849;-80
2023/10/14 12:34:11;;;;;;;4.63;1.47;;;;;;;;;;4955220;28;20636;-79
2023/10/14 12:36:40;;;;;;;3.80;1.20;;;;;;;;;;4985604;28;20251;-79
2023/10/14 12:39:19;;;;;;;3.40;2.30;;;;;;;;;;4989369;28;20221;-78
2023/10/14 12:41:47;;;;;;;2.90;1.20;;;;;;;;;;5008294;28;20225;-77
2023/10/14 12:44:16;;;;;;;7.60;1.53;;;;;;;;;;5011102;28;20246;-79
2023/10/14 12:46:45;;;;;;;2.37;1.13;;;;;;;;;;4976958;28;20225;-79
2023/10/14 12:49:11;;;;;;;2.40;1.20;;;;;;;;;;4984819;28;20226;-78
2023/10/14 12:51:44;;;;;;;10.40;1.30;;;;;;;;;;4981429;28;20237;-78
2023/10/14 12:54:16;;;;;;;2.53;0.90;;;;;;;;;;4990173;28;20229;-78
2023/10/14 12:56:45;;;;;;;3.30;2.10;;;;;;;;;;5017051;28;20221;-79
2023/10/14 12:59:14;;;;;;;3.03;1.30;;;;;;;;;;4983777;28;20213;-80
2023/10/14 13:01:46;;;;;;;1.97;1.30;;;;;;;;;;4999089;28;20224;-76
2023/10/14 13:04:16;;;;;;;3.40;0.90;;;;;;;;;;4984902;28;20225;-78
2023/10/14 13:06:44;;;;;;;2.23;1.30;;;;;;;;;;4978886;28;20226;-79
2023/10/14 13:09:13;;;;;;;3.00;2.00;;;;;;;;;;4944053;28;20210;-79
2023/10/14 13:11:43;;;;;;;5.23;2.20;;;;;;;;;;4980264;28;20232;-79
2023/10/14 13:14:27;;;;;;;3.57;1.20;;;;;;;;;;4985528;28;20241;-79
2023/10/14 13:16:59;;;;;;;3.23;1.47;;;;;;;;;;4965327;28;20219;-78
2023/10/14 13:19:25;;;;;;;1.00;0.90;;;;;;;;;;4993100;28;20225;-78
2023/10/14 13:21:53;;;;;;;4.27;1.80;;;;;;;;;;4978762;28;20237;-78
2023/10/14 13:24:19;;;;;;;2.47;1.30;;;;;;;;;;5002638;28;20250;-80
2023/10/14 13:26:45;;;;;;;2.77;1.23;;;;;;;;;;4945604;28;20250;-80
2023/10/14 13:29:13;;;;;;;1.73;1.10;;;;;;;;;;4963217;28;20229;-81
2023/10/14 13:31:39;;;;;;;1.90;1.23;;;;;;;;;;5003311;28;20229;-80
2023/10/14 13:34:08;;;;;;;3.13;1.57;;;;;;;;;;5006626;28;20228;-80
2023/10/14 13:36:34;;;;;;;2.97;1.67;;;;;;;;;;4976814;28;20226;-79
2023/10/14 13:39:06;;;;;;;3.33;1.30;;;;;;;;;;4956296;28;20225;-80
2023/10/14 13:41:32;;;;;;;4.83;1.73;;;;;;;;;;4986895;28;20222;-77
2023/10/14 13:43:58;;;;;;;8.20;5.40;;;;;;;;;;4988013;28;20229;-81
2023/10/14 13:46:24;;;;;;;4.27;3.87;;;;;;;;;;4943405;28;20280;-81
2023/10/14 13:48:56;;;;;;;3.47;2.00;;;;;;;;;;4986452;28;20234;-79
2023/10/14 13:51:22;;;;;;;2.90;1.23;;;;;;;;;;4975214;28;20226;-79
2023/10/14 13:53:50;;;;;;;7.90;1.20;;;;;;;;;;4994433;28;20571;-79
2023/10/14 13:56:15;;;;;;;2.40;1.30;;;;;;;;;;4973819;28;20222;-79
2023/10/14 13:58:48;;;;;;;2.57;1.23;;;;;;;;;;4994821;28;20226;-80
2023/10/14 14:01:17;;;;;;;4.20;1.57;;;;;;;;;;4981412;28;20232;-78
2023/10/14 14:03:57;;;;;;;2.10;1.13;;;;;;;;;;4990655;28;20569;-80
2023/10/14 14:06:28;;;;;;;2.97;1.20;;;;;;;;;;4976391;28;20312;-79
2023/10/14 14:08:54;;;;;;;3.47;1.43;;;;;;;;;;4996785;28;20259;-79
2023/10/14 14:11:20;;;;;;;3.33;1.47;;;;;;;;;;4981783;28;20222;-78
2023/10/14 14:13:47;;;;;;;5.47;1.20;;;;;;;;;;4974506;28;20241;-79
2023/10/14 14:16:12;;;;;;;2.20;1.07;;;;;;;;;;4955001;28;20221;-78
2023/10/14 14:18:38;;;;;;;3.27;1.40;;;;;;;;;;4961354;28;20234;-79
2023/10/14 14:21:06;;;;;;;4.53;1.43;;;;;;;;;;4990947;28;20283;-79
2023/10/14 14:23:34;;;;;;;3.50;1.20;;;;;;;;;;4971904;28;20226;-78
2023/10/14 14:25:59;;;;;;;4.07;1.30;;;;;;;;;;4973639;28;20313;-79
2023/10/14 14:28:25;;;;;;;9.70;1.50;;;;;;;;;;4975537;28;20641;-78
2023/10/14 14:30:53;;;;;;;4.90;1.80;;;;;;;;;;4938399;28;20698;-78
2023/10/14 14:33:19;;;;;;;4.97;2.67;;;;;;;;;;4982150;28;20724;-79
2023/10/14 14:35:47;;;;;;;4.73;1.60;;;;;;;;;;4968570;28;20220;-79
2023/10/14 14:38:14;;;;;;;3.47;1.53;;;;;;;;;;4993235;28;20213;-79
2023/10/14 14:40:41;;;;;;;2.30;1.47;;;;;;;;;;4994650;28;20218;-78
2023/10/14 14:43:12;;;;;;;11.57;1.70;;;;;;;;;;4983582;28;20216;-78
2023/10/14 14:45:40;;;;;;;3.93;1.57;;;;;;;;;;4993657;28;20756;-79
2023/10/14 14:48:06;;;;;;;2.77;1.20;;;;;;;;;;4998512;28;20221;-80
2023/10/14 14:50:37;;;;;;;2.13;1.30;;;;;;;;;;5003482;28;20227;-79
2023/10/14 14:53:06;;;;;;;2.53;1.27;;;;;;;;;;4956876;28;20578;-79
2023/10/14 14:55:31;;;;;;;4.10;1.77;;;;;;;;;;4996171;28;20313;-80
2023/10/14 14:58:00;;;;;;;3.30;1.30;;;;;;;;;;4976949;28;20233;-80
2023/10/14 15:00:28;;;;;;;5.07;2.30;;;;;;;;;;4942047;28;20767;-82
2023/10/14 15:03:02;;;;;;;4.40;1.60;;;;;;;;;;4972185;28;20231;-82
2023/10/14 15:05:35;;;;;;;2.70;1.53;;;;;;;;;;4985699;28;20235;-80
2023/10/14 15:08:02;;;;;;;3.87;1.80;;;;;;;;;;4972315;28;20226;-78
2023/10/14 15:10:29;;;;;;;2.47;1.50;;;;;;;;;;4961975;28;20253;-79
2023/10/14 15:12:55;;;;;;;6.83;4.60;;;;;;;;;;4977834;28;20227;-79
2023/10/14 15:15:20;;;;;;;3.23;1.57;;;;;;;;;;4967970;28;20267;-80
2023/10/14 15:17:48;;;;;;;2.33;1.40;;;;;;;;;;4977711;28;20237;-79
2023/10/14 15:20:17;;;;;;;2.63;1.77;;;;;;;;;;4982829;28;20340;-81
2023/10/14 15:22:44;;;;;;;5.13;2.60;;;;;;;;;;4969868;28;20226;-78
2023/10/14 15:25:11;;;;;;;6.70;2.23;;;;;;;;;;4957165;28;20670;-77
2023/10/14 15:27:38;;;;;;;4.07;1.70;;;;;;;;;;4950619;28;20388;-78
2023/10/14 15:30:11;;;;;;;3.47;2.03;;;;;;;;;;4976211;28;20242;-78
2023/10/14 15:32:44;;;;;;;4.13;2.07;;;;;;;;;;4949019;28;20225;-80
2023/10/14 15:35:13;;;;;;;4.00;1.67;;;;;;;;;;4959120;28;20225;-81
2023/10/14 15:37:40;;;;;;;6.73;1.57;;;;;;;;;;4968595;28;20303;-80
2023/10/14 15:40:08;;;;;;;4.27;1.73;;;;;;;;;;4957389;28;20222;-83